Time;durP1;ratioP1;P1;durP2;ratioP2;P2;SDS_P1;SDS_P2;PMS_P1;PMS_P2;Temp;Humidity;BMP_temperature;BMP_pressure;BME280_temperature;BME280_humidity;BME280_pressure;Samples;Min_cycle;Max_cycle;Signal;HPM_P1;HPM_P2
2023/01/07 00:01:11;;;;;;;342.10;135.77;;;4.50;99.90;;;;;;5075409;28;20024;-76
2023/01/07 00:03:38;;;;;;;431.27;165.70;;;4.50;99.90;;;;;;5073862;28;20028;-74
2023/01/07 00:06:06;;;;;;;394.10;148.38;;;4.50;99.90;;;;;;5074894;28;20024;-75
2023/01/07 00:08:34;;;;;;;330.50;132.52;;;4.50;99.90;;;;;;5076032;28;20025;-75
2023/01/07 00:11:01;;;;;;;329.10;133.18;;;4.40;99.90;;;;;;5074447;28;20032;-75
2023/01/07 00:13:27;;;;;;;297.15;125.80;;;4.40;99.90;;;;;;5075243;28;20017;-75
2023/01/07 00:15:58;;;;;;;282.38;117.47;;;4.40;99.90;;;;;;5075060;28;20462;-75
2023/01/07 00:18:23;;;;;;;263.30;116.07;;;4.40;99.90;;;;;;5076046;28;20076;-75
2023/01/07 00:20:49;;;;;;;265.27;116.40;;;4.40;99.90;;;;;;5075864;28;20084;-78
2023/01/07 00:23:15;;;;;;;267.65;119.15;;;4.30;99.90;;;;;;5073855;28;20027;-77
2023/01/07 00:25:41;;;;;;;381.35;150.25;;;4.40;99.90;;;;;;5074673;28;20020;-78
2023/01/07 00:28:06;;;;;;;291.80;124.63;;;4.40;99.90;;;;;;5074070;28;20366;-77
2023/01/07 00:30:32;;;;;;;309.63;129.73;;;4.30;99.90;;;;;;5074555;28;20413;-77
2023/01/07 00:33:03;;;;;;;377.98;145.63;;;4.30;99.90;;;;;;5074306;28;20059;-77
2023/01/07 00:35:30;;;;;;;620.13;248.10;;;4.30;99.90;;;;;;5073108;28;20132;-78
2023/01/07 00:37:56;;;;;;;408.50;166.43;;;4.20;99.90;;;;;;5074001;28;20094;-76
2023/01/07 00:40:22;;;;;;;341.30;137.77;;;4.20;99.90;;;;;;5075629;28;20112;-76
2023/01/07 00:42:53;;;;;;;237.35;106.38;;;4.30;99.90;;;;;;5075717;28;20024;-78
2023/01/07 00:45:21;;;;;;;285.50;123.13;;;4.20;99.90;;;;;;5075711;28;20025;-77
2023/01/07 00:47:47;;;;;;;299.08;128.50;;;4.20;99.90;;;;;;5075124;28;20363;-76
2023/01/07 00:50:12;;;;;;;300.38;123.93;;;4.20;99.90;;;;;;5074176;28;20024;-76
2023/01/07 00:52:38;;;;;;;315.95;131.02;;;4.20;99.90;;;;;;5075034;28;20070;-77
2023/01/07 00:55:09;;;;;;;294.77;124.75;;;4.20;99.90;;;;;;5075149;28;20432;-77
2023/01/07 00:57:35;;;;;;;274.85;120.03;;;4.20;99.90;;;;;;5075126;28;20082;-76
2023/01/07 01:00:01;;;;;;;303.27;131.50;;;4.10;99.90;;;;;;5074922;28;20447;-76
2023/01/07 01:02:26;;;;;;;321.52;135.45;;;4.10;99.90;;;;;;5074959;28;20032;-76
2023/01/07 01:04:52;;;;;;;330.45;142.77;;;4.10;99.90;;;;;;5074915;28;20043;-77
2023/01/07 01:07:18;;;;;;;309.10;133.50;;;4.00;99.90;;;;;;5075256;28;20099;-76
2023/01/07 01:09:43;;;;;;;272.40;114.93;;;4.00;99.90;;;;;;5075583;28;20035;-76
2023/01/07 01:12:09;;;;;;;289.27;121.57;;;4.00;99.90;;;;;;5074756;28;20054;-75
2023/01/07 01:14:35;;;;;;;324.85;137.25;;;3.90;99.90;;;;;;5074590;28;20023;-76
2023/01/07 01:17:00;;;;;;;370.95;152.10;;;3.90;99.90;;;;;;5074397;28;20071;-75
2023/01/07 01:19:26;;;;;;;275.42;123.80;;;3.90;99.90;;;;;;5072819;28;20068;-76
2023/01/07 01:21:52;;;;;;;311.65;135.55;;;3.90;99.90;;;;;;5074694;28;20028;-76
2023/01/07 01:24:18;;;;;;;305.23;142.20;;;3.90;99.90;;;;;;5074603;28;20336;-75
2023/01/07 01:26:43;;;;;;;312.77;136.15;;;3.90;99.90;;;;;;5074564;28;20013;-76
2023/01/07 01:29:09;;;;;;;306.48;130.45;;;3.90;99.90;;;;;;5074719;28;20021;-76
2023/01/07 01:31:35;;;;;;;320.67;138.73;;;3.90;99.90;;;;;;5074184;28;20482;-77
2023/01/07 01:34:00;;;;;;;319.33;132.68;;;3.90;99.90;;;;;;5073211;28;20074;-75
2023/01/07 01:36:26;;;;;;;389.98;162.15;;;3.80;99.90;;;;;;5074411;28;20099;-76
2023/01/07 01:38:52;;;;;;;387.60;162.63;;;3.80;99.90;;;;;;5074208;28;20016;-76
2023/01/07 01:41:18;;;;;;;377.95;165.75;;;3.80;99.90;;;;;;5074298;28;20032;-77
2023/01/07 01:43:44;;;;;;;334.90;146.68;;;3.80;99.90;;;;;;5073504;28;20021;-76
2023/01/07 01:46:26;;;;;;;335.17;150.18;;;3.70;99.90;;;;;;5072209;28;20527;-75
2023/01/07 01:48:59;;;;;;;333.20;148.30;;;3.80;99.90;;;;;;5069727;28;20020;-75
2023/01/07 01:51:28;;;;;;;329.55;149.40;;;3.70;99.90;;;;;;5073305;28;20020;-76
2023/01/07 01:53:55;;;;;;;362.40;159.88;;;3.80;99.90;;;;;;5067044;28;20016;-75
2023/01/07 01:56:29;;;;;;;359.83;151.60;;;3.70;99.90;;;;;;5072295;28;20027;-76
2023/01/07 01:59:02;;;;;;;311.55;136.55;;;3.70;99.90;;;;;;5073648;28;20025;-76
2023/01/07 02:01:27;;;;;;;339.17;142.55;;;3.70;99.90;;;;;;5072491;28;20479;-76
2023/01/07 02:03:54;;;;;;;349.52;146.20;;;3.70;99.90;;;;;;5073454;28;20103;-76
2023/01/07 02:06:25;;;;;;;330.55;139.48;;;3.70;99.90;;;;;;5073543;28;20069;-75
2023/01/07 02:08:51;;;;;;;;;;;3.70;99.90;;;;;;5074115;28;20165;-76
2023/01/07 02:11:47;;;;;;;282.42;122.65;;;3.70;99.90;;;;;;5073191;28;20351;-76
2023/01/07 02:14:31;;;;;;;265.92;118.65;;;3.60;99.90;;;;;;5073209;28;20028;-75
2023/01/07 02:17:05;;;;;;;283.95;125.95;;;3.60;99.90;;;;;;5073301;28;20016;-76
2023/01/07 02:19:52;;;;;;;281.38;122.90;;;3.60;99.90;;;;;;5073144;28;20040;-76
2023/01/07 02:22:33;;;;;;;279.52;121.18;;;3.60;99.90;;;;;;5073479;28;20119;-76
2023/01/07 02:25:46;;;;;;;268.97;115.43;;;3.50;99.90;;;;;;5073637;28;20385;-76
2023/01/07 02:28:40;;;;;;;287.30;127.65;;;3.50;99.90;;;;;;5032178;28;20258;-76
2023/01/07 02:31:25;;;;;;;289.30;130.50;;;3.50;99.90;;;;;;5053749;28;20029;-76
2023/01/07 02:34:13;;;;;;;271.98;128.80;;;3.50;99.90;;;;;;5052526;28;20064;-75
2023/01/07 02:36:45;;;;;;;269.55;126.22;;;3.50;99.90;;;;;;5053623;28;20021;-76
2023/01/07 02:39:22;;;;;;;267.15;125.38;;;3.50;99.90;;;;;;5061154;28;20029;-76
2023/01/07 02:41:58;;;;;;;280.13;124.85;;;3.50;99.90;;;;;;5072841;28;20403;-76
2023/01/07 02:44:45;;;;;;;274.00;124.00;;;3.40;99.90;;;;;;5073037;28;20020;-75
2023/01/07 02:47:34;;;;;;;298.63;134.45;;;3.40;99.90;;;;;;5073103;28;20017;-76
2023/01/07 02:50:00;;;;;;;300.10;133.52;;;3.40;99.90;;;;;;5072934;28;20021;-75
2023/01/07 02:52:29;;;;;;;291.13;125.70;;;3.40;99.90;;;;;;5073399;28;20027;-76
2023/01/07 02:55:04;;;;;;;278.70;121.75;;;3.40;99.90;;;;;;5073323;28;20020;-76
2023/01/07 02:57:52;;;;;;;281.85;121.93;;;3.30;99.90;;;;;;5071819;28;20029;-75
2023/01/07 03:00:26;;;;;;;269.88;118.82;;;3.30;99.90;;;;;;5076804;28;20020;-77
2023/01/07 03:03:13;;;;;;;255.15;113.85;;;3.30;99.90;;;;;;5077046;28;20039;-76
2023/01/07 03:06:17;;;;;;;248.10;112.28;;;3.20;99.90;;;;;;5076539;28;20462;-76
2023/01/07 03:09:27;;;;;;;247.68;109.50;;;3.20;99.90;;;;;;5071750;28;20037;-76
2023/01/07 03:12:14;;;;;;;281.40;132.65;;;3.10;99.90;;;;;;5018921;28;20026;-76
2023/01/07 03:14:50;;;;;;;275.23;127.20;;;3.10;99.90;;;;;;5032053;28;20096;-77
2023/01/07 03:17:23;;;;;;;272.02;122.40;;;3.10;99.90;;;;;;5034680;28;20021;-76
2023/01/07 03:19:56;;;;;;;259.15;117.18;;;3.10;99.90;;;;;;5028291;28;20517;-76
2023/01/07 03:22:23;;;;;;;246.27;113.05;;;3.10;99.90;;;;;;5014805;28;20041;-75
2023/01/07 03:24:51;;;;;;;258.77;114.25;;;3.10;99.90;;;;;;5021834;28;20412;-76
2023/01/07 03:27:19;;;;;;;261.25;118.63;;;3.00;99.90;;;;;;5030740;28;20025;-76
2023/01/07 03:29:47;;;;;;;290.00;125.32;;;3.00;99.90;;;;;;5014931;28;20034;-76
2023/01/07 03:32:22;;;;;;;292.38;129.88;;;3.00;99.90;;;;;;5032122;28;20041;-75
2023/01/07 03:34:48;;;;;;;302.58;134.30;;;3.00;99.90;;;;;;5033846;28;20030;-75
2023/01/07 03:37:21;;;;;;;331.98;146.55;;;3.00;99.90;;;;;;5033431;28;20033;-76
2023/01/07 03:39:48;;;;;;;332.10;149.50;;;3.00;99.90;;;;;;5033879;28;20049;-75
2023/01/07 03:45:05;;;;;;;274.38;127.43;;;3.00;99.90;;;;;;5031611;28;20040;-76
2023/01/07 03:47:31;;;;;;;289.35;130.15;;;3.00;99.90;;;;;;5073013;28;20051;-75
2023/01/07 03:49:57;;;;;;;280.73;126.65;;;3.00;99.90;;;;;;5075921;28;20113;-77
2023/01/07 03:52:22;;;;;;;280.73;130.63;;;3.00;99.90;;;;;;5076095;28;20412;-76
2023/01/07 03:54:48;;;;;;;295.45;137.05;;;2.90;99.90;;;;;;5075649;28;20032;-76
2023/01/07 03:57:14;;;;;;;297.38;139.02;;;2.90;99.90;;;;;;5075812;28;20107;-75
2023/01/07 03:59:39;;;;;;;297.17;137.07;;;2.90;99.90;;;;;;5075701;28;20407;-76
2023/01/07 04:02:05;;;;;;;285.63;134.63;;;2.90;99.90;;;;;;5075872;28;20036;-76
2023/01/07 04:04:31;;;;;;;295.80;142.18;;;2.90;99.90;;;;;;5075039;28;20455;-76
2023/01/07 04:06:57;;;;;;;288.48;135.73;;;2.80;99.90;;;;;;5076271;28;20109;-76
2023/01/07 04:09:22;;;;;;;276.65;127.93;;;2.80;99.90;;;;;;5074008;28;20020;-75
2023/01/07 04:11:48;;;;;;;306.23;143.30;;;2.80;99.90;;;;;;5076007;28;20051;-75
2023/01/07 04:14:14;;;;;;;264.13;121.93;;;2.70;99.90;;;;;;5076150;28;20031;-75
2023/01/07 04:16:39;;;;;;;278.45;127.05;;;2.70;99.90;;;;;;5076338;28;20016;-76
2023/01/07 04:19:05;;;;;;;267.23;122.35;;;2.70;99.90;;;;;;5075641;28;20020;-75
2023/01/07 04:21:31;;;;;;;265.45;123.00;;;2.60;99.90;;;;;;5075789;28;20033;-75
2023/01/07 04:23:56;;;;;;;286.35;125.97;;;2.60;99.90;;;;;;5074901;28;20031;-76
2023/01/07 04:26:22;;;;;;;306.15;136.00;;;2.60;99.90;;;;;;5075486;28;20020;-75
2023/01/07 04:28:48;;;;;;;389.50;173.35;;;2.60;99.90;;;;;;5075903;28;20043;-76
2023/01/07 04:31:13;;;;;;;301.70;138.88;;;2.50;99.90;;;;;;5074379;28;20028;-76
2023/01/07 04:33:39;;;;;;;313.73;149.80;;;2.50;99.90;;;;;;5075878;28;20027;-76
2023/01/07 04:36:05;;;;;;;300.05;141.82;;;2.50;99.90;;;;;;5075478;28;20485;-76
2023/01/07 04:38:31;;;;;;;308.30;141.30;;;2.50;99.90;;;;;;5073591;28;20021;-76
2023/01/07 04:40:56;;;;;;;301.65;139.15;;;2.50;99.90;;;;;;5074919;28;20037;-76
2023/01/07 04:43:22;;;;;;;421.70;174.38;;;2.50;99.90;;;;;;5074146;28;20348;-75
2023/01/07 04:45:48;;;;;;;407.90;176.55;;;2.50;99.90;;;;;;5074389;28;20099;-77
2023/01/07 04:48:13;;;;;;;424.15;186.57;;;2.50;99.90;;;;;;5075034;28;20012;-75
2023/01/07 04:50:39;;;;;;;424.25;188.82;;;2.40;99.90;;;;;;5067409;28;20063;-76
2023/01/07 04:53:05;;;;;;;408.55;177.55;;;2.40;99.90;;;;;;5074583;28;20510;-76
2023/01/07 04:55:31;;;;;;;395.73;171.75;;;2.40;99.90;;;;;;5074927;28;20028;-76
2023/01/07 04:57:56;;;;;;;459.98;196.60;;;2.40;99.90;;;;;;5074640;28;20104;-76
2023/01/07 05:00:22;;;;;;;417.90;185.52;;;2.30;99.90;;;;;;5074317;28;20036;-75
2023/01/07 05:02:48;;;;;;;258.33;113.97;;;2.30;99.90;;;;;;5074826;28;20355;-76
2023/01/07 05:05:14;;;;;;;247.43;112.60;;;2.30;99.90;;;;;;5074160;28;20103;-77
2023/01/07 05:07:40;;;;;;;187.20;90.28;;;2.30;99.90;;;;;;5074430;28;20025;-76
2023/01/07 05:10:06;;;;;;;235.13;113.15;;;2.20;99.90;;;;;;5074868;28;20368;-75
2023/01/07 05:12:35;;;;;;;266.40;127.53;;;2.20;99.90;;;;;;5074874;28;20052;-75
2023/01/07 05:15:05;;;;;;;279.27;127.07;;;2.20;99.90;;;;;;5074783;28;20021;-75
2023/01/07 05:17:31;;;;;;;186.32;92.43;;;2.10;99.90;;;;;;5074837;28;20021;-76
2023/01/07 05:19:56;;;;;;;228.35;113.38;;;2.10;99.90;;;;;;5074535;28;20434;-76
2023/01/07 05:22:22;;;;;;;201.73;102.53;;;2.10;99.90;;;;;;5074497;28;20028;-76
2023/01/07 05:24:48;;;;;;;224.57;110.47;;;2.00;99.90;;;;;;5074678;28;20032;-76
2023/01/07 05:27:13;;;;;;;219.75;106.05;;;2.00;99.90;;;;;;5074557;28;20027;-76
2023/01/07 05:29:39;;;;;;;220.88;109.13;;;2.00;99.90;;;;;;5074998;28;20016;-75
2023/01/07 05:32:05;;;;;;;206.45;102.65;;;1.90;99.90;;;;;;5074560;28;20352;-75
2023/01/07 05:34:30;;;;;;;216.18;101.80;;;1.90;99.90;;;;;;5074522;28;20724;-75
2023/01/07 05:36:56;;;;;;;216.10;104.38;;;1.90;99.90;;;;;;5074922;28;20028;-75
2023/01/07 05:39:22;;;;;;;198.60;95.68;;;1.80;99.90;;;;;;5073583;28;20033;-75
2023/01/07 05:41:48;;;;;;;172.75;85.00;;;1.70;99.90;;;;;;5073720;28;20028;-75
2023/01/07 05:44:14;;;;;;;222.63;106.20;;;1.70;99.90;;;;;;5072666;28;20028;-75
2023/01/07 05:46:39;;;;;;;209.77;103.78;;;1.70;99.90;;;;;;5073747;28;20031;-75
2023/01/07 05:49:05;;;;;;;229.82;110.85;;;1.70;99.90;;;;;;5073457;28;20027;-76
2023/01/07 05:51:31;;;;;;;272.27;137.40;;;1.70;99.90;;;;;;5073484;28;20078;-75
2023/01/07 05:53:57;;;;;;;237.68;125.93;;;1.70;99.90;;;;;;5073424;28;20028;-76
2023/01/07 05:56:22;;;;;;;176.70;94.38;;;1.60;99.90;;;;;;5073204;28;20021;-75
2023/01/07 05:58:48;;;;;;;173.23;91.35;;;1.50;99.90;;;;;;5073303;28;20097;-75
2023/01/07 06:01:14;;;;;;;153.90;79.97;;;1.50;99.90;;;;;;5073380;28;20028;-75
2023/01/07 06:03:40;;;;;;;142.43;72.97;;;1.50;99.90;;;;;;5073344;28;20119;-77
2023/01/07 06:06:06;;;;;;;145.77;76.45;;;1.50;99.90;;;;;;5073395;28;20091;-76
2023/01/07 06:08:36;;;;;;;165.32;90.05;;;1.50;99.90;;;;;;5073372;28;20025;-75
2023/01/07 06:11:03;;;;;;;165.55;89.68;;;1.50;99.90;;;;;;5073154;28;20052;-75
2023/01/07 06:13:29;;;;;;;217.30;109.68;;;1.50;99.90;;;;;;5073239;28;20023;-75
2023/01/07 06:16:09;;;;;;;265.13;130.05;;;1.50;99.90;;;;;;5071705;28;20024;-74
2023/01/07 06:18:35;;;;;;;319.33;157.95;;;1.50;99.90;;;;;;5073192;28;20030;-76
2023/01/07 06:21:02;;;;;;;378.67;179.20;;;1.50;99.90;;;;;;5071508;28;20090;-75
2023/01/07 06:23:27;;;;;;;387.65;191.05;;;1.60;99.90;;;;;;5073325;28;20100;-75
2023/01/07 06:25:53;;;;;;;417.63;209.95;;;1.60;99.90;;;;;;5073539;28;20048;-74
2023/01/07 06:28:19;;;;;;;376.73;182.23;;;1.70;99.90;;;;;;5072941;28;20467;-75
2023/01/07 06:30:45;;;;;;;318.25;152.13;;;1.70;99.90;;;;;;5073010;28;20078;-76
2023/01/07 06:33:12;;;;;;;292.02;143.63;;;1.70;99.90;;;;;;5072495;28;20020;-77
2023/01/07 06:35:37;;;;;;;360.52;189.25;;;1.80;99.90;;;;;;5071938;28;20078;-76
2023/01/07 06:38:03;;;;;;;321.20;160.48;;;1.80;99.90;;;;;;5071263;28;20538;-77
2023/01/07 06:40:29;;;;;;;291.10;150.55;;;1.70;99.90;;;;;;5070725;28;20024;-74
2023/01/07 06:42:55;;;;;;;295.80;149.77;;;1.70;99.90;;;;;;5071007;28;21508;-76
2023/01/07 06:45:21;;;;;;;305.20;156.93;;;1.60;99.90;;;;;;5072068;28;20091;-76
2023/01/07 06:47:47;;;;;;;332.35;173.50;;;1.70;99.90;;;;;;5071600;28;20024;-75
2023/01/07 06:50:13;;;;;;;330.20;169.10;;;1.60;99.90;;;;;;5073060;28;20020;-76
2023/01/07 06:52:39;;;;;;;355.75;196.05;;;1.70;99.90;;;;;;5072651;28;20460;-76
2023/01/07 06:55:05;;;;;;;350.80;188.05;;;1.70;99.90;;;;;;5065742;28;20078;-76
2023/01/07 06:57:31;;;;;;;352.83;193.70;;;1.80;99.90;;;;;;5072830;28;20054;-76
2023/01/07 06:59:57;;;;;;;359.75;189.55;;;1.80;99.90;;;;;;5073160;28;20182;-74
2023/01/07 07:02:25;;;;;;;353.25;192.43;;;1.80;99.90;;;;;;5072752;28;20024;-75
2023/01/07 07:04:51;;;;;;;352.85;190.80;;;1.90;99.90;;;;;;5072747;28;20028;-75
2023/01/07 07:07:17;;;;;;;406.95;223.68;;;2.00;99.90;;;;;;5072278;28;20471;-74
2023/01/07 07:09:43;;;;;;;400.17;216.88;;;2.30;99.90;;;;;;5072477;28;20076;-74
2023/01/07 07:12:09;;;;;;;424.23;227.30;;;2.60;99.90;;;;;;5070641;28;20035;-74
2023/01/07 07:14:35;;;;;;;400.10;215.00;;;3.00;99.90;;;;;;5072228;28;20101;-73
2023/01/07 07:17:01;;;;;;;431.75;232.77;;;3.40;99.90;;;;;;5072638;28;20098;-75
2023/01/07 07:19:27;;;;;;;501.65;264.60;;;3.50;99.90;;;;;;5072330;28;20037;-74
2023/01/07 07:21:53;;;;;;;454.95;244.93;;;3.60;99.90;;;;;;5072155;28;20025;-75
2023/01/07 07:24:18;;;;;;;474.75;252.23;;;3.80;99.90;;;;;;5072329;28;20363;-74
2023/01/07 07:26:44;;;;;;;441.58;228.02;;;4.10;99.90;;;;;;5072112;28;20019;-74
2023/01/07 07:29:10;;;;;;;373.88;186.27;;;4.10;99.90;;;;;;5072398;28;20033;-76
2023/01/07 07:31:36;;;;;;;305.65;150.45;;;4.30;99.90;;;;;;5067008;28;20131;-74
2023/01/07 07:34:02;;;;;;;287.17;142.63;;;4.40;99.90;;;;;;5071101;28;20025;-75
2023/01/07 07:36:27;;;;;;;276.88;142.65;;;4.50;99.90;;;;;;5072313;28;20021;-74
2023/01/07 07:38:53;;;;;;;293.35;153.60;;;4.40;99.90;;;;;;5072374;28;20046;-75
2023/01/07 07:41:19;;;;;;;307.58;153.55;;;4.40;99.90;;;;;;5071982;28;20025;-75
2023/01/07 07:43:44;;;;;;;301.38;157.45;;;4.40;99.90;;;;;;5072514;28;20032;-75
2023/01/07 07:46:10;;;;;;;328.25;169.68;;;4.50;99.90;;;;;;5075236;28;20365;-74
2023/01/07 07:48:36;;;;;;;314.38;159.75;;;4.70;99.90;;;;;;5075811;28;20455;-75
2023/01/07 07:51:01;;;;;;;248.00;124.63;;;5.00;99.90;;;;;;5075386;28;20032;-76
2023/01/07 07:53:27;;;;;;;204.60;100.57;;;5.00;99.90;;;;;;5075825;28;20114;-75
2023/01/07 07:55:53;;;;;;;192.15;97.53;;;4.90;99.90;;;;;;5075932;28;20103;-76
2023/01/07 07:58:19;;;;;;;234.32;114.93;;;5.00;99.90;;;;;;5074095;28;20016;-76
2023/01/07 08:00:45;;;;;;;249.75;123.40;;;5.10;99.90;;;;;;5073562;28;20086;-75
2023/01/07 08:03:10;;;;;;;240.90;120.93;;;5.30;99.90;;;;;;5074256;28;20020;-75
2023/01/07 08:05:42;;;;;;;261.48;127.30;;;5.30;99.90;;;;;;5075923;28;20022;-75
2023/01/07 08:08:10;;;;;;;274.67;134.38;;;5.40;99.90;;;;;;5072860;28;20025;-77
2023/01/07 08:10:36;;;;;;;262.17;131.20;;;5.60;99.90;;;;;;5064946;28;20108;-75
2023/01/07 08:13:03;;;;;;;251.63;122.50;;;5.80;99.90;;;;;;5075047;28;20028;-77
2023/01/07 08:15:29;;;;;;;224.13;111.53;;;6.00;99.90;;;;;;5073708;28;20043;-77
2023/01/07 08:17:59;;;;;;;252.85;125.30;;;6.00;99.90;;;;;;5073939;28;20024;-75
2023/01/07 08:20:25;;;;;;;215.70;107.75;;;6.10;99.90;;;;;;5072683;28;20036;-76
2023/01/07 08:22:50;;;;;;;193.55;96.13;;;6.30;99.90;;;;;;5074137;28;20036;-76
2023/01/07 08:25:16;;;;;;;184.05;89.57;;;6.20;99.90;;;;;;5073548;28;20112;-77
2023/01/07 08:27:42;;;;;;;188.07;93.35;;;6.50;99.90;;;;;;5075327;28;20031;-77
2023/01/07 08:30:08;;;;;;;193.95;95.10;;;6.70;99.90;;;;;;5075103;28;20021;-76
2023/01/07 08:32:35;;;;;;;178.95;88.57;;;6.60;99.90;;;;;;5075781;28;20152;-76
2023/01/07 08:35:00;;;;;;;189.25;92.40;;;6.50;99.90;;;;;;5075227;28;20032;-78
2023/01/07 08:37:29;;;;;;;177.52;87.25;;;6.60;99.90;;;;;;5075132;28;20021;-76
2023/01/07 08:39:54;;;;;;;162.77;81.10;;;6.70;99.90;;;;;;5075701;28;20101;-76
2023/01/07 08:42:20;;;;;;;173.07;89.13;;;6.70;99.90;;;;;;5074286;28;20251;-78
2023/01/07 08:44:46;;;;;;;172.90;88.82;;;6.80;99.90;;;;;;5074814;28;20443;-77
2023/01/07 08:47:11;;;;;;;178.10;91.07;;;6.80;99.90;;;;;;5073924;28;20020;-78
2023/01/07 08:49:37;;;;;;;187.20;96.10;;;7.00;99.90;;;;;;5073976;28;20020;-77
2023/01/07 08:52:03;;;;;;;160.98;86.55;;;7.10;99.90;;;;;;5074962;28;20035;-78
2023/01/07 08:54:29;;;;;;;180.23;93.47;;;7.20;99.90;;;;;;5074901;28;20024;-77
2023/01/07 08:56:54;;;;;;;214.48;106.80;;;7.40;99.90;;;;;;5073723;28;20059;-77
2023/01/07 08:59:20;;;;;;;176.13;90.88;;;7.60;99.90;;;;;;5074264;28;20024;-79
2023/01/07 09:01:46;;;;;;;160.38;85.45;;;7.70;99.90;;;;;;5072968;28;20044;-78
2023/01/07 09:04:11;;;;;;;158.32;80.97;;;7.80;99.90;;;;;;5073558;28;20020;-76
2023/01/07 09:06:37;;;;;;;130.95;67.25;;;7.90;99.90;;;;;;5078724;28;20024;-76
2023/01/07 09:09:03;;;;;;;144.52;75.18;;;8.00;99.90;;;;;;5092254;28;20026;-76
2023/01/07 09:11:28;;;;;;;154.98;78.68;;;8.10;99.90;;;;;;5074577;28;20127;-78
2023/01/07 09:13:54;;;;;;;119.38;62.67;;;8.20;99.90;;;;;;5072915;28;20024;-80
2023/01/07 09:16:20;;;;;;;118.90;63.08;;;8.40;99.90;;;;;;5074388;28;20048;-79
2023/01/07 09:18:45;;;;;;;100.25;52.55;;;8.40;99.90;;;;;;5074219;28;19900;-78
2023/01/07 09:21:11;;;;;;;100.10;50.08;;;8.50;99.90;;;;;;5072413;28;20544;-77
2023/01/07 09:23:37;;;;;;;115.95;59.92;;;8.60;99.90;;;;;;5073385;28;20050;-79
2023/01/07 09:26:02;;;;;;;108.55;57.90;;;8.80;99.90;;;;;;5072994;28;20455;-79
2023/01/07 09:28:28;;;;;;;111.25;54.10;;;8.90;99.90;;;;;;5073322;28;20055;-79
2023/01/07 09:30:54;;;;;;;103.18;52.63;;;9.00;99.90;;;;;;5072992;28;20100;-78
2023/01/07 09:33:20;;;;;;;111.50;54.00;;;9.30;99.90;;;;;;5073627;28;20029;-78
2023/01/07 09:35:45;;;;;;;69.93;36.80;;;9.40;99.90;;;;;;5072058;28;20036;-77
2023/01/07 09:38:11;;;;;;;70.73;36.60;;;9.60;99.90;;;;;;5073771;28;20448;-78
2023/01/07 09:40:40;;;;;;;69.87;37.73;;;9.80;99.90;;;;;;5073175;28;19908;-77
2023/01/07 09:43:24;;;;;;;64.47;35.17;;;10.00;99.90;;;;;;5071853;28;20216;-76
2023/01/07 09:45:52;;;;;;;64.20;34.00;;;10.30;99.90;;;;;;5072601;28;20024;-79
2023/01/07 09:48:44;;;;;;;70.88;36.50;;;10.60;99.90;;;;;;5066324;28;19904;-78
2023/01/07 09:51:19;;;;;;;68.85;35.55;;;10.50;99.90;;;;;;5069908;28;20349;-79
2023/01/07 09:53:49;;;;;;;67.40;34.10;;;10.40;99.90;;;;;;5071769;28;19945;-78
2023/01/07 09:56:23;;;;;;;74.90;39.00;;;10.90;99.90;;;;;;5073176;28;20040;-78
2023/01/07 09:58:49;;;;;;;60.97;34.43;;;11.30;99.90;;;;;;5073204;28;20146;-78
2023/01/07 10:01:41;;;;;;;55.60;29.75;;;11.70;99.90;;;;;;5072109;28;20032;-78
2023/01/07 10:04:33;;;;;;;60.53;30.95;;;11.90;99.60;;;;;;5070092;28;20099;-77
2023/01/07 10:07:01;;;;;;;51.70;30.02;;;12.00;98.90;;;;;;5072570;28;20104;-79
2023/01/07 10:09:42;;;;;;;62.00;32.78;;;12.30;96.70;;;;;;5072484;28;20455;-78
2023/01/07 10:12:35;;;;;;;62.63;33.05;;;12.80;96.50;;;;;;5067561;28;20474;-77
2023/01/07 10:15:22;;;;;;;66.78;36.25;;;13.00;94.40;;;;;;5072700;28;20025;-76
2023/01/07 10:18:11;;;;;;;63.53;31.88;;;13.50;93.20;;;;;;5072822;28;20024;-78
2023/01/07 10:20:41;;;;;;;66.00;38.70;;;;;;;;;;5069469;28;20044;-73
2023/01/07 10:23:13;;;;;;;57.85;34.17;;;13.80;92.10;;;;;;5072063;28;20426;-78
2023/01/07 10:25:46;;;;;;;58.30;32.13;;;14.10;90.40;;;;;;5072857;28;20028;-77
2023/01/07 10:28:20;;;;;;;59.35;33.95;;;14.50;89.20;;;;;;5071205;28;20028;-79
2023/01/07 10:30:50;;;;;;;57.42;33.40;;;15.00;85.40;;;;;;5072686;28;20463;-77
2023/01/07 10:33:18;;;;;;;83.78;44.95;;;15.50;84.20;;;;;;5072166;28;20032;-78
2023/01/07 10:35:52;;;;;;;68.88;40.63;;;16.00;81.50;;;;;;5082663;28;20451;-78
2023/01/07 10:38:19;;;;;;;57.20;34.75;;;16.20;79.00;;;;;;5066583;28;20367;-78
2023/01/07 10:40:57;;;;;;;64.90;39.15;;;16.60;77.70;;;;;;5072734;28;20016;-78
2023/01/07 10:43:55;;;;;;;63.03;36.00;;;16.90;73.90;;;;;;5071673;28;20394;-77
2023/01/07 10:46:56;;;;;;;64.95;36.35;;;17.10;72.30;;;;;;5072937;28;20039;-76
2023/01/07 10:49:33;;;;;;;69.95;35.10;;;17.20;70.70;;;;;;5040583;28;20079;-76
2023/01/07 10:52:30;;;;;;;57.17;35.42;;;17.10;71.10;;;;;;5072129;28;20035;-78
2023/01/07 10:55:09;;;;;;;64.32;37.50;;;17.00;70.30;;;;;;5072243;28;20103;-78
2023/01/07 10:57:37;;;;;;;53.28;34.83;;;17.30;69.90;;;;;;5072293;28;20012;-77
2023/01/07 11:00:06;;;;;;;55.47;34.33;;;17.10;69.60;;;;;;5071105;28;20016;-78
2023/01/07 11:02:32;;;;;;;70.35;35.53;;;17.00;70.20;;;;;;5072450;28;20090;-77
2023/01/07 11:04:58;;;;;;;59.13;34.50;;;17.00;70.70;;;;;;5071276;28;20056;-77
2023/01/07 11:07:43;;;;;;;65.35;39.15;;;17.20;69.20;;;;;;5072153;28;20013;-76
2023/01/07 11:10:24;;;;;;;54.28;34.72;;;17.20;68.70;;;;;;5070018;28;20383;-77
2023/01/07 11:13:28;;;;;;;63.13;38.00;;;17.30;68.60;;;;;;5075724;28;20066;-78
2023/01/07 11:16:09;;;;;;;55.00;34.47;;;16.40;69.40;;;;;;5022781;28;20056;-79
2023/01/07 11:19:08;;;;;;;63.33;38.25;;;16.30;71.20;;;;;;5036727;28;20115;-77
2023/01/07 11:21:40;;;;;;;58.25;36.03;;;15.70;72.50;;;;;;5044993;28;20388;-77
2023/01/07 11:24:32;;;;;;;60.85;37.28;;;15.90;73.30;;;;;;5019985;28;20018;-79
2023/01/07 11:27:14;;;;;;;54.42;33.45;;;16.10;74.50;;;;;;5014404;28;20033;-77
2023/01/07 11:30:00;;;;;;;;;;;16.10;73.60;;;;;;5027139;28;20083;-78
2023/01/07 11:32:29;;;;;;;61.45;37.97;;;16.00;73.90;;;;;;5017780;28;19999;-78
2023/01/07 11:35:18;;;;;;;58.63;38.28;;;16.20;73.30;;;;;;5032674;28;20395;-77
2023/01/07 11:37:46;;;;;;;84.95;49.00;;;16.10;72.90;;;;;;5015838;28;20033;-76
2023/01/07 11:40:12;;;;;;;78.65;46.35;;;16.10;73.90;;;;;;5021196;28;20500;-78
2023/01/07 11:42:56;;;;;;;77.15;45.00;;;15.80;73.70;;;;;;5027380;28;20033;-78
2023/01/07 11:45:24;;;;;;;69.18;42.15;;;15.60;75.60;;;;;;5023329;28;20066;-78
2023/01/07 11:48:17;;;;;;;68.93;43.28;;;15.60;74.90;;;;;;5030996;28;20083;-78
2023/01/07 11:50:56;;;;;;;71.47;44.00;;;15.30;76.20;;;;;;5023541;28;20512;-80
2023/01/07 11:53:34;;;;;;;72.65;43.08;;;15.20;76.20;;;;;;5071115;28;20127;-79
2023/01/07 11:56:09;;;;;;;71.13;41.90;;;15.00;76.90;;;;;;5075359;28;20025;-77
2023/01/07 11:58:44;;;;;;;65.10;40.58;;;14.50;77.60;;;;;;5074865;28;20062;-79
2023/01/07 12:01:11;;;;;;;71.47;42.75;;;14.60;78.90;;;;;;5066186;28;20413;-78
2023/01/07 12:03:40;;;;;;;72.28;44.63;;;14.40;79.30;;;;;;5075229;28;20035;-76
2023/01/07 12:06:28;;;;;;;70.32;43.95;;;13.90;80.70;;;;;;5074982;28;20016;-76
2023/01/07 12:09:20;;;;;;;72.63;43.33;;;13.50;82.30;;;;;;5076330;28;20443;-75
2023/01/07 12:11:46;;;;;;;83.40;46.75;;;13.10;84.00;;;;;;5070826;28;20115;-76
2023/01/07 12:14:25;;;;;;;78.07;46.80;;;12.80;85.90;;;;;;5071101;28;20177;-74
2023/01/07 12:16:51;;;;;;;72.90;43.15;;;12.80;87.80;;;;;;5070303;28;20017;-76
2023/01/07 12:19:35;;;;;;;79.20;45.63;;;12.60;89.60;;;;;;5074609;28;20074;-75
2023/01/07 12:22:13;;;;;;;80.63;46.55;;;12.50;90.50;;;;;;5073727;28;20098;-75
2023/01/07 12:25:11;;;;;;;198.00;84.70;;;12.50;91.10;;;;;;5072662;28;20017;-75
2023/01/07 12:27:56;;;;;;;151.05;64.88;;;12.30;91.60;;;;;;5054714;28;20024;-74
2023/01/07 12:30:48;;;;;;;203.38;82.82;;;12.20;92.90;;;;;;5076089;28;20037;-74
2023/01/07 12:33:31;;;;;;;220.15;86.53;;;12.20;93.30;;;;;;5074234;28;20505;-75
2023/01/07 12:36:04;;;;;;;294.60;111.50;;;12.00;93.90;;;;;;5074002;28;20024;-75
2023/01/07 12:38:50;;;;;;;375.08;139.25;;;11.90;94.50;;;;;;5076246;28;20013;-74
2023/01/07 12:41:27;;;;;;;281.95;107.65;;;11.80;95.40;;;;;;5067446;28;20059;-75